createdAt,value
2022-11-07T00:00:39.374Z,96.0
2022-11-07T00:05:45.586Z,96.0
2022-11-07T00:10:51.788Z,96.0
2022-11-07T00:15:58.003Z,96.0
2022-11-07T00:21:04.206Z,96.0
2022-11-07T00:26:10.455Z,96.0
2022-11-07T00:31:16.619Z,96.0
2022-11-07T00:36:22.836Z,96.0
2022-11-07T00:41:29.035Z,96.0
2022-11-07T00:46:35.253Z,96.0
2022-11-07T00:51:41.457Z,96.0
2022-11-07T00:56:47.663Z,96.0
2022-11-07T01:01:53.958Z,96.0
2022-11-07T01:07:00.094Z,96.0
2022-11-07T01:12:06.290Z,96.0
2022-11-07T01:17:12.497Z,96.0
2022-11-07T01:22:18.704Z,96.0
2022-11-07T01:27:24.919Z,96.0
2022-11-07T01:32:31.116Z,96.0
2022-11-07T01:37:36.366Z,96.0
2022-11-07T01:42:42.569Z,96.0
2022-11-07T01:47:48.778Z,96.0
2022-11-07T01:52:54.981Z,96.5
2022-11-07T01:58:01.191Z,96.5
2022-11-07T02:08:13.602Z,96.5
2022-11-07T02:13:19.808Z,96.5
2022-11-07T02:18:26.018Z,96.5
2022-11-07T02:23:32.228Z,96.5
2022-11-07T02:33:44.644Z,97.0
2022-11-07T02:38:50.862Z,97.0
2022-11-07T02:43:56.088Z,97.0
2022-11-07T02:49:08.416Z,97.0
2022-11-07T02:54:20.739Z,97.0
2022-11-07T02:59:33.056Z,97.0
2022-11-07T03:04:49.150Z,97.0
2022-11-07T03:09:57.713Z,97.0
2022-11-07T03:15:09.108Z,97.0
2022-11-07T03:20:15.276Z,97.0
2022-11-07T03:25:20.531Z,97.0
2022-11-07T03:30:26.717Z,97.0
2022-11-07T03:35:32.937Z,97.0
2022-11-07T03:40:39.150Z,97.0
2022-11-07T03:45:45.341Z,97.0
2022-11-07T03:50:51.556Z,97.0
2022-11-07T03:55:57.756Z,97.0
2022-11-07T04:01:03.969Z,97.5
2022-11-07T04:06:10.172Z,97.5
2022-11-07T04:11:16.387Z,97.5
2022-11-07T04:16:22.601Z,97.5
2022-11-07T04:21:28.798Z,97.5
2022-11-07T04:26:35.014Z,97.5
2022-11-07T04:31:41.220Z,97.5
2022-11-07T04:36:47.414Z,97.5
2022-11-07T04:41:53.628Z,97.5
2022-11-07T04:46:59.844Z,97.5
2022-11-07T04:52:06.047Z,97.5
2022-11-07T04:57:12.252Z,97.5
2022-11-07T05:02:18.628Z,97.5
2022-11-07T05:07:24.673Z,97.0
2022-11-07T05:12:29.907Z,97.0
2022-11-07T05:17:36.119Z,97.0
2022-11-07T05:22:42.337Z,97.0
2022-11-07T05:27:48.543Z,97.0
2022-11-07T05:32:54.745Z,97.0
2022-11-07T05:38:00.947Z,97.0
2022-11-07T05:43:07.157Z,97.5
2022-11-07T05:48:13.364Z,97.5
2022-11-07T05:53:19.710Z,97.5
2022-11-07T05:58:25.780Z,97.5
2022-11-07T06:03:31.992Z,97.5
2022-11-07T06:08:38.193Z,97.0
2022-11-07T06:13:44.399Z,97.0
2022-11-07T06:18:50.608Z,97.0
2022-11-07T06:23:56.822Z,97.0
2022-11-07T06:29:03.032Z,97.0
2022-11-07T06:34:09.244Z,97.0
2022-11-07T06:39:15.491Z,97.0
2022-11-07T06:44:21.652Z,97.0
2022-11-07T06:49:27.880Z,97.0
2022-11-07T06:54:34.084Z,96.5
2022-11-07T06:59:39.309Z,96.5
2022-11-07T07:04:45.524Z,96.5
2022-11-07T07:09:50.758Z,96.5
2022-11-07T07:14:56.970Z,96.5
2022-11-07T07:20:02.226Z,96.5
2022-11-07T07:25:08.427Z,96.5
2022-11-07T07:30:14.626Z,96.5
2022-11-07T07:35:20.879Z,96.5
2022-11-07T07:40:27.046Z,96.5
2022-11-07T07:45:33.265Z,96.5
2022-11-07T07:50:39.471Z,96.5
2022-11-07T07:55:45.679Z,96.5
2022-11-07T08:00:52.005Z,96.0
2022-11-07T08:05:58.138Z,96.0
2022-11-07T08:11:04.323Z,96.0
2022-11-07T08:16:10.528Z,96.0
2022-11-07T08:21:16.742Z,96.0
2022-11-07T08:26:22.959Z,96.0
2022-11-07T08:31:29.174Z,96.0
2022-11-07T08:36:35.383Z,96.0
2022-11-07T08:41:41.594Z,96.0
2022-11-07T08:46:47.806Z,96.0
2022-11-07T08:51:54.017Z,95.5
2022-11-07T08:57:00.275Z,95.5
2022-11-07T09:02:57.324Z,95.5
2022-11-07T09:07:11.689Z,95.5
2022-11-07T09:12:17.910Z,95.5
2022-11-07T09:17:23.151Z,95.0
2022-11-07T09:22:29.361Z,95.0
2022-11-07T09:27:35.564Z,95.0
2022-11-07T09:32:44.918Z,94.5
2022-11-07T09:37:47.983Z,94.5
2022-11-07T09:42:54.192Z,94.5
2022-11-07T09:48:00.409Z,95.0
2022-11-07T09:53:06.610Z,94.5
2022-11-07T09:58:12.827Z,94.5
2022-11-07T10:03:19.158Z,94.5
2022-11-07T10:08:25.261Z,94.5
2022-11-07T10:18:37.671Z,94.5
2022-11-07T10:23:43.878Z,94.5
2022-11-07T10:28:50.098Z,94.5
2022-11-07T10:33:56.309Z,94.0
2022-11-07T10:39:02.517Z,94.0
2022-11-07T10:44:08.768Z,93.5
2022-11-07T10:49:14.933Z,93.5
2022-11-07T10:54:21.859Z,94.0
2022-11-07T10:59:30.112Z,94.0
2022-11-07T11:04:32.583Z,93.5
2022-11-07T11:09:37.817Z,93.5
2022-11-07T11:14:44.040Z,93.5
2022-11-07T11:19:49.269Z,93.5
2022-11-07T11:24:55.478Z,93.5
2022-11-07T11:30:01.745Z,93.0
2022-11-07T11:35:07.900Z,93.0
2022-11-07T11:40:14.117Z,93.0
2022-11-07T11:45:20.314Z,92.5
2022-11-07T11:50:26.527Z,92.5
2022-11-07T11:55:32.728Z,92.5
2022-11-07T12:00:38.939Z,92.5
2022-11-07T12:05:45.151Z,92.5
2022-11-07T12:10:51.359Z,92.0
2022-11-07T12:15:57.569Z,92.0
2022-11-07T12:21:03.767Z,92.0
2022-11-07T12:26:09.976Z,91.0
2022-11-07T12:31:16.186Z,91.0
2022-11-07T12:36:22.557Z,90.5
2022-11-07T12:41:28.602Z,90.5
2022-11-07T12:46:34.813Z,90.5
2022-11-07T12:51:41.037Z,90.5
2022-11-07T12:56:47.240Z,90.5
2022-11-07T13:01:53.629Z,90.0
2022-11-07T13:06:58.675Z,90.0
2022-11-07T13:12:04.887Z,90.0
2022-11-07T13:17:10.115Z,90.0
2022-11-07T13:22:16.319Z,89.5
2022-11-07T13:27:22.527Z,89.0
2022-11-07T13:32:28.748Z,89.0
2022-11-07T13:37:34.953Z,88.5
2022-11-07T13:42:41.161Z,88.5
2022-11-07T13:47:47.372Z,88.5
2022-11-07T13:52:53.587Z,89.0
2022-11-07T13:57:59.781Z,89.0
2022-11-07T14:03:05.995Z,89.0
2022-11-07T14:08:12.201Z,89.5
2022-11-07T14:13:18.762Z,89.5
2022-11-07T14:18:24.619Z,89.5
2022-11-07T14:23:30.828Z,90.0
2022-11-07T14:28:37.031Z,90.0
2022-11-07T14:33:43.240Z,90.0
2022-11-07T14:38:49.447Z,90.0
2022-11-07T14:43:55.671Z,90.0
2022-11-07T14:49:01.866Z,90.0
2022-11-07T14:54:08.066Z,90.0
2022-11-07T14:59:14.283Z,90.0
2022-11-07T15:04:19.514Z,90.0
2022-11-07T15:09:25.742Z,90.0
2022-11-07T15:14:30.962Z,90.0
2022-11-07T15:19:37.178Z,90.0
2022-11-07T15:24:43.379Z,90.0
2022-11-07T15:29:48.615Z,90.0
2022-11-07T15:35:12.543Z,90.0
2022-11-07T15:40:01.066Z,90.0
2022-11-07T15:45:07.241Z,90.5
2022-11-07T15:50:13.447Z,90.5
2022-11-07T15:55:19.660Z,90.5
2022-11-07T16:00:25.863Z,90.5
2022-11-07T16:05:32.077Z,90.5
2022-11-07T16:10:38.280Z,90.5
2022-11-07T16:15:44.486Z,91.0
2022-11-07T16:20:50.695Z,91.0
2022-11-07T16:25:56.902Z,91.0
2022-11-07T16:31:03.112Z,91.0
2022-11-07T16:36:09.320Z,91.0
2022-11-07T16:41:15.529Z,91.0
2022-11-07T16:46:21.733Z,91.0
2022-11-07T16:51:27.946Z,91.0
2022-11-07T16:56:34.155Z,91.5
2022-11-07T17:01:40.511Z,91.5
2022-11-07T17:06:46.564Z,91.5
2022-11-07T17:11:52.777Z,91.5
2022-11-07T17:17:00.848Z,91.5
2022-11-07T17:22:04.216Z,91.5
2022-11-07T17:27:10.423Z,91.5
2022-11-07T17:32:15.666Z,91.5
2022-11-07T17:37:21.885Z,91.5
2022-11-07T17:42:28.083Z,91.5
2022-11-07T17:47:34.497Z,91.5
2022-11-07T17:52:40.492Z,91.5
2022-11-07T17:57:46.706Z,91.5
2022-11-07T18:02:53.198Z,91.5
2022-11-07T18:07:59.118Z,91.5
2022-11-07T18:13:05.326Z,91.5
2022-11-07T18:18:11.585Z,91.5
2022-11-07T18:23:17.742Z,91.5
2022-11-07T18:28:23.955Z,91.5
2022-11-07T18:33:30.158Z,91.5
2022-11-07T18:38:36.373Z,91.5
2022-11-07T18:43:42.576Z,91.5
2022-11-07T18:48:48.786Z,91.5
2022-11-07T18:53:54.993Z,91.5
2022-11-07T18:59:01.203Z,91.5
2022-11-07T19:04:07.511Z,91.5
2022-11-07T19:09:13.616Z,91.5
2022-11-07T19:14:19.828Z,91.5
2022-11-07T19:19:25.062Z,92.0
2022-11-07T19:24:31.271Z,92.0
2022-11-07T19:29:36.553Z,92.0
2022-11-07T19:34:42.718Z,92.0
2022-11-07T19:39:48.925Z,92.0
2022-11-07T19:44:56.682Z,92.5
2022-11-07T19:50:01.345Z,92.5
2022-11-07T19:55:07.552Z,92.5
2022-11-07T20:00:13.780Z,92.5
2022-11-07T20:05:19.990Z,92.5
2022-11-07T20:10:26.185Z,92.5
2022-11-07T20:15:32.390Z,92.5
2022-11-07T20:20:38.604Z,92.5
2022-11-07T20:25:44.813Z,92.5
2022-11-07T20:30:51.055Z,92.5
2022-11-07T20:35:57.251Z,93.0
2022-11-07T20:41:03.465Z,93.0
2022-11-07T20:46:09.680Z,93.0
2022-11-07T20:51:15.885Z,93.0
2022-11-07T20:56:22.118Z,93.0
2022-11-07T21:01:28.438Z,93.0
2022-11-07T21:06:34.510Z,93.0
2022-11-07T21:11:40.722Z,93.0
2022-11-07T21:16:45.959Z,93.0
2022-11-07T21:21:52.171Z,93.0
2022-11-07T21:26:57.415Z,93.0
2022-11-07T21:32:03.619Z,93.0
2022-11-07T21:37:09.821Z,93.0
2022-11-07T21:42:16.038Z,93.0
2022-11-07T21:47:22.243Z,93.0
2022-11-07T21:52:28.470Z,93.5
2022-11-07T21:57:34.674Z,93.5
2022-11-07T22:02:40.957Z,93.5
2022-11-07T22:07:47.095Z,93.5
2022-11-07T22:12:53.301Z,93.5
2022-11-07T22:17:59.662Z,93.0
2022-11-07T22:23:05.712Z,93.0
2022-11-07T22:28:11.933Z,93.0
2022-11-07T22:33:18.632Z,93.0
2022-11-07T22:38:24.368Z,93.0
2022-11-07T22:43:30.599Z,93.0
2022-11-07T22:48:36.811Z,93.0
2022-11-07T22:53:43.145Z,93.0
2022-11-07T22:58:49.220Z,93.0
2022-11-07T23:03:55.444Z,93.0
2022-11-07T23:09:01.658Z,93.0
2022-11-07T23:14:06.898Z,93.0
2022-11-07T23:19:13.101Z,93.0
2022-11-07T23:24:18.337Z,93.5
2022-11-07T23:29:24.553Z,93.5
2022-11-07T23:34:30.765Z,93.5
2022-11-07T23:39:36.979Z,93.5
2022-11-07T23:44:43.202Z,93.5
2022-11-07T23:49:49.421Z,93.5
2022-11-07T23:54:55.635Z,94.0
